Česky Dansk Deutsch English Español Suomi Français Magyar Italiano Nederlands norsk Polski Português svenska Türkçe

 

Het Weer

Saint-Yan (Frankrijk)

04:00, 22 augustus 2016 (GMT)

NWNNE
WE
SWSSE
Home            
Saint-Yan Vichy Macon Nevers Clermont-Ferrand St-Etienne Boutheon Lyon / Bron Lyon / Satolas Amberieu Dijon Avord Dole Tavaux Montlucon / Gueret Bourges Le Puy Grenoble / St. Geoirs Auxerre Geneve-Cointrin Chatillon-Sur-Seine Chambery / Aix-Les-Bains Besancon Chateauroux Lausanne

Om een weerknop op uw website of weblog te plaatsen, copieer onderstaande code en plak die in uw pagina. In het eerste vakje staat HTML-code, in het tweede vakje UBB-code.


Add to Google

Details

Wind speed:1 bf, 2 kn, 1.0 m/s, 2.3 miles/h, 3.7 km/h
Wind direction:SE, 130°
Visibility: 800 m, 0.8 km, 2625 ft, 0.5 miles
Het Weer:moderate fog
Temperature:8°C, 46°F
Dew-point:8°C, 46°F
Atmospheric pressure:1027 hPa, 770.3 mmHg, 30.33 inHg, 1.014 atm
Relative humidity:100.0 %
METAR:LFLN 220400Z AUTO 13002KT 0800 R33/1000U FG NSC 08/08 Q1027

Snelkoppelingen

Actuele weersinformatie van de hele wereld. Voeg locaties toe met het plus (+) symbool. Deze snelkoppelingen kunnen worden toegevoegd aan Google.

Lid van de Technetium groep

website free tracking
StatCounter NetStat W3C Validator

19-10-2018 09:11:00
astro.technetium.be money.technetium.be phote.technetium.be tafeltennistafel.technetium.be www.ligfiets.net